Time;durP1;ratioP1;P1;durP2;ratioP2;P2;SDS_P1;SDS_P2;PMS_P1;PMS_P2;Temp;Humidity;BMP_temperature;BMP_pressure;BME280_temperature;BME280_humidity;BME280_pressure;Samples;Min_cycle;Max_cycle;Signal;HPM_P1;HPM_P2
2023/10/04 00:00:40;;;;;;;9.23;5.15;;;;;;;14.58;72.80;101761.31;4163803;28;20068;-64
2023/10/04 00:02:44;;;;;;;9.48;5.00;;;;;;;14.51;73.21;101759.44;4165078;28;20484;-63
2023/10/04 00:04:48;;;;;;;11.60;5.25;;;;;;;14.47;73.16;101758.47;4163658;28;20061;-63
2023/10/04 00:06:51;;;;;;;9.65;5.10;;;;;;;14.47;72.67;101764.63;4159489;28;20133;-64
2023/10/04 00:08:53;;;;;;;11.30;5.20;;;;;;;14.46;72.93;101767.22;4162494;28;20041;-64
2023/10/04 00:10:56;;;;;;;10.68;5.18;;;;;;;14.43;73.41;101764.53;4173648;28;20395;-64
2023/10/04 00:12:59;;;;;;;11.43;5.22;;;;;;;14.40;73.79;101767.97;4177130;28;20518;-64
2023/10/04 00:15:04;;;;;;;13.32;6.28;;;;;;;14.38;73.03;101771.41;4161710;28;20475;-64
2023/10/04 00:17:08;;;;;;;;;;;;;;;14.27;73.35;101772.06;4162869;28;20045;-64
2023/10/04 00:19:12;;;;;;;13.10;4.75;;;;;;;14.30;72.99;101773.88;4166419;28;19927;-64
2023/10/04 00:21:16;;;;;;;;;;;;;;;14.18;73.72;101771.91;4171213;28;20052;-64
2023/10/04 00:23:19;;;;;;;13.90;5.25;;;;;;;14.22;73.73;101776.34;4179329;28;20370;-64
2023/10/04 00:25:21;;;;;;;12.27;4.95;;;;;;;14.24;73.88;101768.53;4160459;28;20037;-64
2023/10/04 00:27:24;;;;;;;11.05;4.90;;;;;;;14.17;73.76;101767.50;4178322;28;20060;-63
2023/10/04 00:29:28;;;;;;;11.73;5.80;;;;;;;14.20;73.02;101766.69;4175416;28;20037;-64
2023/10/04 00:31:32;;;;;;;12.40;4.60;;;;;;;14.16;73.84;101770.97;4150218;28;20034;-63
2023/10/04 00:33:38;;;;;;;14.27;4.57;;;;;;;14.14;73.32;101763.09;4181520;28;20052;-64
2023/10/04 00:35:41;;;;;;;11.43;4.53;;;;;;;14.12;73.36;101766.56;4168370;28;20068;-64
2023/10/04 00:37:44;;;;;;;7.53;3.92;;;;;;;14.09;73.59;101764.75;4162126;28;20585;-64
2023/10/04 00:39:48;;;;;;;13.45;3.42;;;;;;;14.05;74.21;101762.91;4173787;28;20037;-65
2023/10/04 00:41:53;;;;;;;9.23;3.65;;;;;;;14.03;74.07;101776.78;4173021;28;20510;-63
2023/10/04 00:43:58;;;;;;;6.03;3.05;;;;;;;14.00;74.16;101780.22;4165217;28;20037;-63
2023/10/04 00:46:01;;;;;;;6.68;3.15;;;;;;;14.00;74.12;101776.75;4172290;28;20052;-63
2023/10/04 00:48:10;;;;;;;8.43;2.75;;;;;;;14.02;74.09;101781.16;4174725;28;20068;-63
2023/10/04 00:50:15;;;;;;;9.50;3.05;;;;;;;13.97;74.34;101782.78;4166667;28;20037;-64
2023/10/04 00:52:19;;;;;;;;;;;;;;;13.81;74.51;101778.94;4166741;28;20098;-64
2023/10/04 00:54:22;;;;;;;8.02;3.10;;;;;;;13.85;74.64;101772.06;4172674;28;20004;-64
2023/10/04 00:56:26;;;;;;;9.25;3.05;;;;;;;13.85;74.64;101772.06;4161431;28;20045;-64
2023/10/04 00:58:29;;;;;;;6.50;2.78;;;;;;;13.87;74.57;101779.09;4164771;28;20103;-63
2023/10/04 01:00:31;;;;;;;5.25;2.28;;;;;;;13.83;74.54;101784.19;4178454;28;20038;-63
2023/10/04 01:02:35;;;;;;;8.50;3.00;;;;;;;13.84;74.68;101780.75;4159408;28;20380;-64
2023/10/04 01:04:38;;;;;;;7.63;2.80;;;;;;;13.86;74.17;101784.28;4165157;28;20487;-63
2023/10/04 01:06:44;;;;;;;6.10;2.53;;;;;;;13.89;74.42;101777.38;4178156;28;20087;-64
2023/10/04 01:08:47;;;;;;;6.97;2.67;;;;;;;13.91;74.25;101790.50;4173161;28;20056;-64
2023/10/04 01:10:53;;;;;;;5.55;2.53;;;;;;;13.90;73.67;101792.22;4164917;28;20324;-63
2023/10/04 01:12:55;;;;;;;6.68;2.90;;;;;;;13.88;74.34;101793.91;4164913;28;20041;-63
2023/10/04 01:15:19;;;;;;;5.10;2.40;;;;;;;13.87;74.41;101793.88;4171633;28;20037;-63
2023/10/04 01:17:22;;;;;;;4.80;2.40;;;;;;;13.81;74.23;101794.63;4180042;28;20123;-63
2023/10/04 01:19:25;;;;;;;4.68;2.15;;;;;;;13.76;74.50;101791.03;4180146;28;20041;-63
2023/10/04 01:21:30;;;;;;;6.88;2.35;;;;;;;13.77;73.93;101793.69;4179003;28;20037;-63
2023/10/04 01:23:34;;;;;;;7.07;3.17;;;;;;;13.79;74.02;101791.09;4172586;28;20044;-63
2023/10/04 01:25:38;;;;;;;;;;;;;;;13.68;74.27;101789.97;4165161;28;20079;-63
2023/10/04 01:27:44;;;;;;;9.57;2.92;;;;;;;13.65;73.78;101803.84;4166462;28;20362;-63
2023/10/04 01:29:47;;;;;;;5.95;2.95;;;;;;;13.68;74.48;101808.25;4162034;28;20076;-64
2023/10/04 01:31:50;;;;;;;6.22;2.70;;;;;;;13.72;74.08;101797.91;4179782;28;20037;-65
2023/10/04 01:33:56;;;;;;;5.10;2.42;;;;;;;13.70;74.58;101799.63;4180248;28;20139;-64
2023/10/04 01:36:00;;;;;;;6.43;2.47;;;;;;;13.66;74.27;101794.28;4168120;28;20550;-63
2023/10/04 01:38:06;;;;;;;5.78;2.58;;;;;;;13.64;74.41;101793.34;4159835;28;20523;-64
2023/10/04 01:40:12;;;;;;;8.40;2.70;;;;;;;13.61;74.22;101796.81;4165777;28;20048;-64
2023/10/04 01:42:15;;;;;;;5.05;2.40;;;;;;;13.56;74.46;101791.44;4179586;28;20049;-64
2023/10/04 01:44:18;;;;;;;5.57;2.40;;;;;;;13.54;74.46;101793.16;4167631;28;20487;-64
2023/10/04 01:46:20;;;;;;;6.00;2.83;;;;;;;13.52;74.41;101783.50;4165403;28;20033;-64
2023/10/04 01:48:23;;;;;;;4.82;2.47;;;;;;;13.56;74.39;101785.34;4165077;28;20431;-64
2023/10/04 01:50:26;;;;;;;4.75;2.45;;;;;;;13.57;74.06;101789.75;4179608;28;20094;-63
2023/10/04 01:52:30;;;;;;;5.47;2.38;;;;;;;13.55;74.07;101794.94;4180791;28;20059;-63
2023/10/04 01:54:33;;;;;;;4.88;2.40;;;;;;;13.51;74.50;101793.09;4179434;28;20045;-64
2023/10/04 01:56:41;;;;;;;6.18;2.67;;;;;;;13.49;74.44;101799.13;4179599;28;20075;-63
2023/10/04 01:58:48;;;;;;;4.13;2.60;;;;;;;13.47;74.44;101799.06;4160495;28;20042;-64
2023/10/04 02:00:51;;;;;;;6.38;2.38;;;;;;;13.42;73.97;101798.97;4150691;28;20049;-65
2023/10/04 02:02:53;;;;;;;7.28;2.65;;;;;;;13.39;74.06;101806.75;4170075;28;20132;-64
2023/10/04 02:04:57;;;;;;;5.43;2.47;;;;;;;13.42;74.21;101811.16;4165116;28;20037;-64
2023/10/04 02:07:00;;;;;;;5.05;2.47;;;;;;;13.43;74.20;101805.06;4163755;28;20038;-63
2023/10/04 02:09:09;;;;;;;6.25;2.65;;;;;;;13.43;74.57;101811.19;4179753;28;20495;-63
2023/10/04 02:11:13;;;;;;;4.97;2.50;;;;;;;13.39;74.63;101805.84;4175905;28;20041;-63
2023/10/04 02:13:17;;;;;;;5.97;2.45;;;;;;;13.34;74.48;101810.06;4195888;28;20107;-64
2023/10/04 02:15:20;;;;;;;6.53;2.92;;;;;;;13.29;74.58;101807.34;4170857;28;20119;-63
2023/10/04 02:17:23;;;;;;;7.25;3.08;;;;;;;13.30;74.28;101802.97;4179413;28;20242;-63
2023/10/04 02:19:27;;;;;;;6.47;2.50;;;;;;;13.26;74.51;101808.13;4163951;28;20045;-64
2023/10/04 02:21:30;;;;;;;6.05;3.15;;;;;;;13.26;74.52;101809.88;4168230;28;20045;-64
2023/10/04 02:23:33;;;;;;;6.55;3.17;;;;;;;13.23;73.71;101809.78;4143545;28;20473;-64
2023/10/04 02:25:37;;;;;;;5.43;2.63;;;;;;;13.20;74.08;101809.69;4173790;28;20052;-63
2023/10/04 02:27:40;;;;;;;7.22;3.25;;;;;;;13.17;74.02;101807.00;4164579;28;20124;-63
2023/10/04 02:29:46;;;;;;;8.18;3.30;;;;;;;13.19;74.70;101810.56;4165204;28;20607;-63
2023/10/04 02:31:49;;;;;;;6.05;2.75;;;;;;;13.15;74.50;101806.09;4168321;28;20033;-65
2023/10/04 02:33:54;;;;;;;5.32;2.75;;;;;;;13.10;74.82;101801.63;4176084;28;20472;-64
2023/10/04 02:35:57;;;;;;;5.70;2.75;;;;;;;13.09;75.20;101804.22;4153480;28;20535;-64
2023/10/04 02:38:00;;;;;;;6.57;2.95;;;;;;;13.12;75.00;101809.50;4178677;28;20047;-64
2023/10/04 02:40:14;;;;;;;9.20;3.35;;;;;;;13.08;74.55;101805.03;4167527;28;20581;-64
2023/10/04 02:42:21;;;;;;;8.35;3.58;;;;;;;13.06;73.99;101804.13;4163687;28;20060;-63
2023/10/04 02:44:24;;;;;;;6.63;3.25;;;;;;;13.03;74.04;101804.06;4169057;28;20052;-63
2023/10/04 02:46:28;;;;;;;6.30;3.28;;;;;;;13.01;74.02;101806.63;4162470;28;20042;-63
2023/10/04 02:48:32;;;;;;;6.85;3.38;;;;;;;12.98;74.01;101800.44;4164192;28;20045;-63
2023/10/04 02:50:37;;;;;;;9.52;3.33;;;;;;;12.91;74.14;101810.72;4162965;28;20045;-63
2023/10/04 02:52:40;;;;;;;7.55;4.10;;;;;;;12.85;74.12;101807.97;4172055;28;20046;-64
2023/10/04 02:54:43;;;;;;;8.20;3.95;;;;;;;12.85;74.93;101807.06;4178363;28;20075;-63
2023/10/04 02:56:48;;;;;;;8.73;4.82;;;;;;;12.91;74.41;101802.88;4178503;28;20037;-63
2023/10/04 02:58:53;;;;;;;10.43;4.40;;;;;;;12.81;73.89;101798.28;4177232;28;20037;-64
2023/10/04 03:00:57;;;;;;;8.55;4.10;;;;;;;12.80;74.37;101809.53;4178808;28;20061;-64
2023/10/04 03:03:02;;;;;;;8.63;4.00;;;;;;;12.77;74.59;101804.25;4159687;28;20057;-64
2023/10/04 03:05:06;;;;;;;9.35;4.60;;;;;;;12.79;74.70;101804.28;4147745;28;20477;-63
2023/10/04 03:07:09;;;;;;;9.85;4.63;;;;;;;12.80;74.66;101799.09;4161543;28;20041;-64
2023/10/04 03:09:12;;;;;;;8.93;5.40;;;;;;;12.76;74.85;101794.63;4163098;28;20057;-64
2023/10/04 03:11:15;;;;;;;11.30;5.75;;;;;;;12.72;75.08;101798.91;4164243;28;20479;-63
2023/10/04 03:13:25;;;;;;;8.60;4.88;;;;;;;12.72;74.97;101798.91;4170281;28;20127;-64
2023/10/04 03:15:32;;;;;;;9.63;5.10;;;;;;;12.73;74.98;101802.38;4163131;28;20084;-64
2023/10/04 03:17:35;;;;;;;7.60;4.45;;;;;;;12.77;74.80;101801.63;4162731;28;20593;-63
2023/10/04 03:19:39;;;;;;;9.10;5.28;;;;;;;12.78;74.59;101799.94;4173907;28;20537;-63
2023/10/04 03:21:45;;;;;;;7.93;4.72;;;;;;;12.75;74.64;101814.66;4174540;28;20057;-64
2023/10/04 03:23:54;;;;;;;7.05;3.95;;;;;;;12.73;74.48;101811.13;4162932;28;20045;-63
2023/10/04 03:26:00;;;;;;;8.02;4.80;;;;;;;12.71;74.41;101819.75;4174718;28;20040;-64
2023/10/04 03:28:05;;;;;;;10.63;5.43;;;;;;;12.68;74.73;101810.09;4177883;28;20096;-64
2023/10/04 03:30:14;;;;;;;8.10;3.95;;;;;;;12.66;75.02;101821.31;4162004;28;20137;-63
2023/10/04 03:32:18;;;;;;;9.10;4.88;;;;;;;12.65;75.18;101832.63;4191387;22;20045;-65
2023/10/04 03:34:22;;;;;;;7.90;4.55;;;;;;;12.65;75.15;101828.28;4178144;28;20128;-63
2023/10/04 03:36:29;;;;;;;7.97;5.05;;;;;;;12.67;75.54;101823.09;4178404;28;20033;-63
2023/10/04 03:38:36;;;;;;;9.98;4.45;;;;;;;12.69;75.47;101818.84;4167221;28;20033;-63
2023/10/04 03:40:40;;;;;;;6.97;4.28;;;;;;;12.66;76.13;101817.00;4167746;28;20051;-63
2023/10/04 03:42:47;;;;;;;8.38;4.68;;;;;;;12.70;75.44;101823.19;4178137;28;20274;-63
2023/10/04 03:44:49;;;;;;;10.25;4.38;;;;;;;12.69;75.41;101817.09;4175011;28;20507;-63
2023/10/04 03:46:53;;;;;;;8.93;4.47;;;;;;;12.71;75.64;101815.41;4166445;28;20037;-65
2023/10/04 03:48:58;;;;;;;6.53;4.07;;;;;;;12.71;75.52;101812.78;4175441;28;20545;-65
2023/10/04 03:51:03;;;;;;;9.48;4.57;;;;;;;12.74;75.26;101814.59;4178514;28;20534;-65
2023/10/04 03:53:08;;;;;;;10.00;4.35;;;;;;;12.92;74.09;101812.50;4165027;28;20042;-65
2023/10/04 03:55:13;;;;;;;9.25;4.15;;;;;;;12.73;74.79;101815.44;4162651;28;20135;-65
2023/10/04 03:57:16;;;;;;;7.65;3.35;;;;;;;12.71;75.10;101817.13;4163652;28;20025;-65
2023/10/04 03:59:20;;;;;;;8.88;3.72;;;;;;;12.58;75.39;101813.28;4172634;28;20435;-65
2023/10/04 04:01:26;;;;;;;7.82;4.15;;;;;;;12.57;75.91;101811.53;4161500;28;20132;-65
2023/10/04 04:03:30;;;;;;;7.75;3.20;;;;;;;12.48;76.43;101804.31;4174087;28;20083;-65
2023/10/04 04:05:38;;;;;;;7.60;3.60;;;;;;;12.48;76.55;101803.44;4165992;28;20033;-65
2023/10/04 04:07:41;;;;;;;6.47;3.38;;;;;;;12.49;76.53;101800.88;4162287;28;20041;-65
2023/10/04 04:09:46;;;;;;;6.40;3.35;;;;;;;12.53;76.67;101802.75;4162469;28;20132;-65
2023/10/04 04:11:50;;;;;;;;;;;;;;;12.45;76.86;101808.59;4168586;28;20029;-65
2023/10/04 04:13:56;;;;;;;7.18;3.40;;;;;;;12.49;76.58;101807.84;4180463;28;19920;-65
2023/10/04 04:15:59;;;;;;;8.45;3.80;;;;;;;12.54;76.37;101804.53;4181501;28;20574;-65
2023/10/04 04:18:13;;;;;;;7.65;4.13;;;;;;;12.55;76.74;101808.88;4177550;28;21747;-65
2023/10/04 04:20:18;;;;;;;8.82;3.58;;;;;;;12.59;76.61;101804.66;4165685;28;20045;-65
2023/10/04 04:22:23;;;;;;;8.27;3.90;;;;;;;12.55;76.65;101801.03;4165595;28;20038;-65
2023/10/04 04:24:27;;;;;;;8.55;3.50;;;;;;;12.52;76.64;101808.78;4149149;28;20057;-65
2023/10/04 04:26:33;;;;;;;7.60;3.67;;;;;;;12.46;76.72;101811.22;4181420;28;20562;-65
2023/10/04 04:28:36;;;;;;;8.75;3.70;;;;;;;12.46;76.63;101811.22;4176568;28;20292;-65
2023/10/04 04:30:41;;;;;;;6.72;3.90;;;;;;;12.47;76.90;101812.09;4165559;28;20463;-65
2023/10/04 04:32:45;;;;;;;6.53;3.15;;;;;;;12.49;76.80;101807.84;4178682;28;20036;-65
2023/10/04 04:34:48;;;;;;;7.53;4.15;;;;;;;12.51;76.67;101814.88;4181120;28;20036;-65
2023/10/04 04:36:51;;;;;;;7.45;3.70;;;;;;;12.51;76.41;101814.88;4182071;28;20608;-65
2023/10/04 04:38:56;;;;;;;6.30;3.80;;;;;;;12.49;76.79;101813.94;4170612;28;20072;-65
2023/10/04 04:41:05;;;;;;;6.78;3.75;;;;;;;12.42;76.92;101808.50;4166660;28;20045;-65
2023/10/04 04:43:23;;;;;;;8.82;3.65;;;;;;;12.44;76.75;101801.59;4162963;28;20495;-65
2023/10/04 04:45:34;;;;;;;7.97;3.78;;;;;;;12.46;76.59;101798.19;4167119;28;20044;-65
2023/10/04 04:47:37;;;;;;;8.38;4.97;;;;;;;12.46;76.08;101805.16;4179180;28;20033;-65
2023/10/04 04:49:40;;;;;;;7.43;3.25;;;;;;;12.39;76.66;101802.34;4179855;28;20045;-65
2023/10/04 04:51:45;;;;;;;7.72;3.83;;;;;;;12.42;76.81;101809.38;4173322;28;20044;-65
2023/10/04 04:53:49;;;;;;;7.38;3.25;;;;;;;12.42;76.58;101811.97;4160145;28;20041;-65
2023/10/04 04:55:56;;;;;;;5.97;3.05;;;;;;;12.43;76.81;101808.53;4174311;28;20079;-65
2023/10/04 04:57:59;;;;;;;7.35;4.20;;;;;;;12.44;76.24;101806.81;4165984;28;20038;-65
2023/10/04 05:00:30;;;;;;;6.13;3.03;;;;;;;12.43;76.57;101811.16;4167294;28;20044;-65
2023/10/04 05:02:32;;;;;;;6.63;3.67;;;;;;;12.39;76.75;101812.78;4176152;28;20129;-65
2023/10/04 05:04:36;;;;;;;5.60;3.42;;;;;;;12.49;76.15;101811.31;4167887;28;20060;-65
2023/10/04 05:06:39;;;;;;;7.70;3.85;;;;;;;12.42;76.12;101808.50;4176263;28;20491;-65
2023/10/04 05:08:43;;;;;;;8.40;3.97;;;;;;;12.44;76.25;101812.03;4166886;28;20480;-65
2023/10/04 05:10:49;;;;;;;8.32;3.20;;;;;;;12.39;76.45;101810.16;4166136;28;20077;-65
2023/10/04 05:12:53;;;;;;;6.82;3.63;;;;;;;12.25;76.78;101814.13;4166045;28;20049;-65
2023/10/04 05:14:56;;;;;;;7.72;3.65;;;;;;;12.20;77.01;101808.75;4165912;28;20033;-65
2023/10/04 05:17:00;;;;;;;8.23;3.58;;;;;;;12.21;77.34;101807.91;4164489;28;20065;-65
2023/10/04 05:19:04;;;;;;;11.30;4.22;;;;;;;12.21;77.15;101810.53;4166232;28;20034;-65
2023/10/04 05:21:10;;;;;;;8.75;4.22;;;;;;;12.26;76.93;101812.38;4176073;28;20420;-65
2023/10/04 05:23:15;;;;;;;8.23;4.85;;;;;;;12.27;76.62;101819.38;4181215;28;20040;-65
2023/10/04 05:25:18;;;;;;;7.25;3.65;;;;;;;12.28;76.48;101805.47;4180460;28;20052;-65
2023/10/04 05:27:21;;;;;;;9.38;4.15;;;;;;;12.25;76.42;101814.13;4176327;28;20045;-65
2023/10/04 05:29:24;;;;;;;6.35;3.10;;;;;;;12.20;76.62;101807.88;4180646;28;20036;-65
2023/10/04 05:31:27;;;;;;;6.15;3.35;;;;;;;12.18;77.19;101810.44;4167040;28;20037;-65
2023/10/04 05:33:31;;;;;;;8.27;3.78;;;;;;;12.20;76.85;101807.88;4169575;28;20039;-65
2023/10/04 05:35:35;;;;;;;5.28;3.40;;;;;;;12.25;76.64;101810.63;4144298;28;20351;-65
2023/10/04 05:37:37;;;;;;;5.97;3.10;;;;;;;12.29;76.14;101815.09;4164561;28;20040;-65
2023/10/04 05:39:40;;;;;;;6.32;3.05;;;;;;;12.26;76.63;101825.44;4165074;28;20042;-65
2023/10/04 05:41:45;;;;;;;6.78;3.95;;;;;;;12.32;75.91;101820.38;4180028;28;20041;-65
2023/10/04 05:43:47;;;;;;;7.75;3.55;;;;;;;12.36;75.20;101814.41;4161951;28;20041;-65
2023/10/04 05:45:50;;;;;;;5.28;2.65;;;;;;;12.20;75.60;101820.91;4165432;28;20407;-65
2023/10/04 05:47:54;;;;;;;6.82;3.42;;;;;;;12.14;76.11;101816.41;4172192;28;20042;-65
2023/10/04 05:49:58;;;;;;;8.73;2.43;;;;;;;12.07;75.81;101819.66;4174041;28;20521;-65
2023/10/04 05:52:01;;;;;;;6.57;3.15;;;;;;;12.03;76.39;101826.53;4159050;28;20487;-65
2023/10/04 05:54:04;;;;;;;5.28;2.78;;;;;;;12.10;76.48;101830.19;4166550;28;20084;-65
2023/10/04 05:56:09;;;;;;;9.02;3.22;;;;;;;12.12;76.31;101831.13;4151112;28;20045;-65
2023/10/04 05:58:13;;;;;;;6.63;3.10;;;;;;;12.10;76.39;101838.00;4152929;28;20042;-65
2023/10/04 06:00:24;;;;;;;5.95;3.25;;;;;;;12.05;76.10;101834.38;4153448;28;20112;-65
2023/10/04 06:02:30;;;;;;;5.38;3.05;;;;;;;12.03;75.94;101841.25;4163098;28;20068;-65
2023/10/04 06:04:35;;;;;;;7.10;3.70;;;;;;;12.02;76.19;101850.81;4165145;28;20132;-65
2023/10/04 06:06:44;;;;;;;6.88;2.60;;;;;;;12.04;76.04;101858.66;4147188;28;20166;-65
2023/10/04 06:08:47;;;;;;;4.95;2.90;;;;;;;12.10;75.84;101855.38;4162891;28;20037;-65
2023/10/04 06:10:51;;;;;;;6.22;3.15;;;;;;;12.12;76.18;101857.19;4163827;28;20041;-65
2023/10/04 06:12:57;;;;;;;5.60;2.58;;;;;;;12.12;75.87;101859.81;4166354;28;20041;-65
2023/10/04 06:15:00;;;;;;;4.63;2.10;;;;;;;12.15;76.11;101872.00;4180412;28;20037;-65
2023/10/04 06:17:04;;;;;;;6.13;2.58;;;;;;;12.17;75.51;101865.16;4163718;28;20140;-65
2023/10/04 06:19:07;;;;;;;8.30;2.97;;;;;;;12.16;75.94;101863.38;4159750;28;20549;-65
2023/10/04 06:21:25;;;;;;;6.80;2.60;;;;;;;12.17;75.88;101868.63;4162907;28;20041;-65
2023/10/04 06:23:31;;;;;;;6.15;2.58;;;;;;;12.18;75.53;101877.34;4152733;28;20037;-65
2023/10/04 06:25:40;;;;;;;6.53;2.55;;;;;;;12.18;75.25;101867.81;4164924;28;20033;-65
2023/10/04 06:27:42;;;;;;;9.02;2.83;;;;;;;12.20;75.55;101870.44;4168143;28;20048;-65
2023/10/04 06:29:45;;;;;;;8.15;3.47;;;;;;;12.27;75.33;101866.31;4158964;28;20037;-65
2023/10/04 06:31:48;;;;;;;6.90;3.33;;;;;;;12.23;75.70;101878.38;4159913;28;20033;-65
2023/10/04 06:33:54;;;;;;;9.00;2.85;;;;;;;12.26;75.16;101891.50;4152921;28;20058;-64
2023/10/04 06:35:57;;;;;;;10.15;2.92;;;;;;;12.23;75.55;101900.09;4161593;28;20131;-64
2023/10/04 06:38:01;;;;;;;6.18;2.33;;;;;;;12.26;75.23;101890.63;4159231;28;20546;-64
2023/10/04 06:40:14;;;;;;;8.02;3.03;;;;;;;12.23;75.44;101897.47;4162743;28;20029;-64
2023/10/04 06:42:17;;;;;;;5.63;2.78;;;;;;;12.25;75.19;101899.25;4162952;28;20040;-65
2023/10/04 06:44:19;;;;;;;11.15;3.70;;;;;;;12.28;74.93;101904.56;4169156;28;20045;-65
2023/10/04 06:46:24;;;;;;;10.52;2.88;;;;;;;12.31;74.78;101904.66;4161219;28;20128;-64
2023/10/04 06:48:27;;;;;;;8.48;3.00;;;;;;;12.30;74.91;101902.91;4164193;28;20049;-64
2023/10/04 06:50:32;;;;;;;7.00;3.15;;;;;;;12.33;74.92;101916.03;4161173;28;20439;-65
2023/10/04 06:52:35;;;;;;;6.50;2.85;;;;;;;12.34;75.79;101913.47;4160569;28;20033;-65
2023/10/04 06:54:38;;;;;;;5.22;2.75;;;;;;;12.35;75.90;101911.75;4173878;28;20040;-65
2023/10/04 06:56:44;;;;;;;5.95;3.08;;;;;;;12.37;75.41;101900.53;4163539;28;20116;-65
2023/10/04 06:58:48;;;;;;;5.15;2.85;;;;;;;12.44;75.61;101906.81;4162085;28;20387;-65
2023/10/04 07:00:51;;;;;;;11.82;3.40;;;;;;;12.46;75.17;101914.69;4164280;28;20042;-65
2023/10/04 07:02:58;;;;;;;6.90;3.58;;;;;;;12.49;75.19;101909.56;4158233;28;20417;-65
2023/10/04 07:05:00;;;;;;;7.55;3.13;;;;;;;12.51;75.54;101910.47;4164312;28;20442;-65
2023/10/04 07:07:03;;;;;;;11.43;3.33;;;;;;;12.57;75.22;101910.66;4162708;28;20398;-65
2023/10/04 07:09:07;;;;;;;10.40;3.33;;;;;;;12.63;74.95;101920.38;4162793;28;20129;-65
2023/10/04 07:11:11;;;;;;;6.78;2.65;;;;;;;12.64;74.97;101915.22;4177183;28;20465;-65
2023/10/04 07:13:16;;;;;;;6.63;2.35;;;;;;;12.71;74.77;101916.28;4179640;28;20132;-65
2023/10/04 07:15:20;;;;;;;6.20;2.25;;;;;;;12.73;74.74;101922.41;4158916;28;20065;-65
2023/10/04 07:17:23;;;;;;;7.97;2.92;;;;;;;12.76;74.85;101919.91;4163274;28;20037;-65
2023/10/04 07:19:29;;;;;;;8.60;2.70;;;;;;;12.78;74.77;101927.81;4150193;28;20470;-65
2023/10/04 07:21:32;;;;;;;6.25;2.40;;;;;;;12.83;74.51;101932.28;4148841;28;20054;-65
2023/10/04 07:23:35;;;;;;;6.00;2.88;;;;;;;12.85;73.98;101925.41;4153057;28;20069;-65
2023/10/04 07:25:46;;;;;;;5.28;2.42;;;;;;;12.91;74.17;101930.78;4159060;28;20174;-65
2023/10/04 07:27:49;;;;;;;8.90;2.88;;;;;;;12.94;74.04;101932.59;4159325;28;20249;-65
2023/10/04 07:29:54;;;;;;;6.70;2.55;;;;;;;12.91;73.72;101935.13;4170810;28;20037;-65
2023/10/04 07:31:57;;;;;;;5.32;2.20;;;;;;;12.96;73.75;101938.75;4163581;28;20087;-65
2023/10/04 07:33:59;;;;;;;7.50;2.75;;;;;;;13.00;74.31;101940.59;4169634;28;20410;-65
2023/10/04 07:36:03;;;;;;;9.80;2.72;;;;;;;13.05;73.47;101943.34;4166726;28;20523;-65
2023/10/04 07:38:05;;;;;;;8.82;2.60;;;;;;;13.08;73.26;101949.56;4173235;28;20052;-65
2023/10/04 07:40:10;;;;;;;6.78;2.53;;;;;;;13.08;73.04;101946.94;4176904;28;20051;-65
2023/10/04 07:42:14;;;;;;;7.53;2.75;;;;;;;13.15;73.19;101939.25;4172169;28;20346;-65
2023/10/04 07:44:17;;;;;;;7.80;3.38;;;;;;;13.19;72.93;101938.50;4167090;28;20041;-65
2023/10/04 07:46:25;;;;;;;6.20;2.80;;;;;;;13.28;72.44;101939.63;4172923;28;20067;-65
2023/10/04 07:48:28;;;;;;;6.45;3.17;;;;;;;13.31;72.60;101945.78;4169620;28;20384;-66
2023/10/04 07:50:31;;;;;;;9.73;3.13;;;;;;;13.32;72.77;101939.72;4165781;28;20040;-66
2023/10/04 07:52:34;;;;;;;5.53;2.30;;;;;;;13.35;72.72;101948.56;4164654;28;20080;-66
2023/10/04 07:54:37;;;;;;;6.60;2.60;;;;;;;13.41;72.90;101951.31;4185039;28;20045;-64
2023/10/04 07:56:40;;;;;;;7.47;2.90;;;;;;;13.49;72.23;101956.78;4168318;28;20037;-66
2023/10/04 07:58:43;;;;;;;8.73;2.83;;;;;;;13.55;72.42;101953.41;4181014;28;20123;-66
2023/10/04 08:00:46;;;;;;;6.57;2.30;;;;;;;13.64;72.30;101955.38;4176314;28;20115;-66
2023/10/04 08:02:51;;;;;;;5.40;2.50;;;;;;;13.68;71.82;101952.00;4167444;28;20117;-66
2023/10/04 08:04:55;;;;;;;12.40;2.95;;;;;;;13.71;71.47;101950.38;4172681;28;20033;-66
2023/10/04 08:06:58;;;;;;;10.85;2.72;;;;;;;13.73;71.53;101950.41;4178568;28;20132;-67
2023/10/04 08:09:00;;;;;;;7.03;2.22;;;;;;;13.79;72.20;101947.94;4163157;28;20122;-67
2023/10/04 08:11:08;;;;;;;4.43;2.40;;;;;;;13.85;72.24;101953.31;4176565;28;20052;-66
2023/10/04 08:13:11;;;;;;;7.60;2.33;;;;;;;13.89;71.95;101956.91;4180957;28;20048;-67
2023/10/04 08:15:14;;;;;;;7.70;2.20;;;;;;;13.95;71.01;101957.03;4175493;28;20037;-67
2023/10/04 08:17:17;;;;;;;7.97;2.75;;;;;;;14.01;71.29;101958.94;4174789;28;20064;-67
2023/10/04 08:19:21;;;;;;;6.63;2.55;;;;;;;14.05;71.13;101953.81;4171430;28;20033;-67
2023/10/04 08:21:24;;;;;;;10.60;2.58;;;;;;;14.06;71.39;101950.34;4176910;28;20041;-67
2023/10/04 08:23:27;;;;;;;11.98;3.40;;;;;;;14.10;70.57;101952.16;4166983;28;20047;-67
2023/10/04 08:25:32;;;;;;;9.65;2.65;;;;;;;14.31;69.76;101943.06;4174999;28;20533;-67
2023/10/04 08:27:35;;;;;;;10.77;3.60;;;;;;;14.34;68.98;101934.38;4170615;28;20530;-66
2023/10/04 08:29:38;;;;;;;9.68;3.17;;;;;;;14.31;69.14;101938.72;4174426;28;20037;-67
2023/10/04 08:32:00;;;;;;;9.38;2.58;;;;;;;14.32;69.31;101943.09;4163608;28;20029;-66
2023/10/04 08:34:03;;;;;;;7.05;2.63;;;;;;;14.36;68.97;101943.16;4169648;28;20033;-66
2023/10/04 08:36:26;;;;;;;9.70;2.65;;;;;;;14.38;68.94;101944.94;4166408;28;20079;-64
2023/10/04 08:38:29;;;;;;;4.80;2.50;;;;;;;14.29;70.29;101944.75;4170415;28;20448;-65
2023/10/04 08:40:36;;;;;;;6.95;2.97;;;;;;;14.32;70.09;101945.72;4169250;28;20033;-65
2023/10/04 08:42:38;;;;;;;9.10;2.50;;;;;;;14.42;70.47;101940.69;4170296;28;20094;-66
2023/10/04 08:45:02;;;;;;;6.95;2.42;;;;;;;14.47;70.77;101947.78;4174542;28;20103;-66
2023/10/04 08:47:06;;;;;;;8.65;3.28;;;;;;;14.58;69.12;101945.41;4171331;28;20056;-65
2023/10/04 08:49:11;;;;;;;9.98;3.13;;;;;;;14.62;68.90;101944.66;4168103;28;20606;-65
2023/10/04 08:51:27;;;;;;;12.57;2.83;;;;;;;14.66;69.48;101941.25;4139493;28;20089;-66
2023/10/04 08:53:57;;;;;;;6.85;2.50;;;;;;;14.77;69.44;101941.47;4170173;28;20458;-66
2023/10/04 08:56:04;;;;;;;11.88;2.72;;;;;;;14.84;69.26;101945.09;4165626;28;20091;-66
2023/10/04 08:58:07;;;;;;;5.95;2.75;;;;;;;14.94;69.12;101939.19;4167113;28;20033;-65
2023/10/04 09:00:14;;;;;;;16.20;2.92;;;;;;;14.99;69.17;101932.31;4166986;28;20042;-66
2023/10/04 09:02:31;;;;;;;8.45;2.63;;;;;;;15.04;68.70;101942.00;4169600;28;20056;-65
2023/10/04 09:04:39;;;;;;;7.25;2.58;;;;;;;15.08;68.60;101935.97;4174339;28;20043;-65
2023/10/04 09:06:45;;;;;;;10.05;2.60;;;;;;;15.15;68.09;101938.72;4174206;28;20124;-65
2023/10/04 09:08:49;;;;;;;8.43;3.28;;;;;;;15.19;67.84;101937.06;4166047;28;20128;-65
2023/10/04 09:10:54;;;;;;;6.88;2.67;;;;;;;15.32;67.77;101941.66;4171127;28;20072;-65
2023/10/04 09:12:57;;;;;;;;;;;;;;;15.35;68.01;101933.88;4181423;28;20495;-65
2023/10/04 09:15:01;;;;;;;8.77;3.07;;;;;;;15.41;67.67;101932.22;4181376;28;19928;-65
2023/10/04 09:17:06;;;;;;;10.13;2.65;;;;;;;15.52;67.35;101921.06;4175393;28;20065;-65
2023/10/04 09:19:14;;;;;;;14.63;4.43;;;;;;;15.61;67.16;101925.59;4165822;28;20583;-65
2023/10/04 09:21:17;;;;;;;13.75;3.13;;;;;;;15.71;66.84;101922.25;4166760;28;20042;-65
2023/10/04 09:23:22;;;;;;;10.38;2.95;;;;;;;15.79;67.27;101932.91;4165759;28;20037;-66
2023/10/04 09:25:34;;;;;;;8.68;2.88;;;;;;;15.87;66.04;101925.16;4165893;28;20033;-66
2023/10/04 09:27:41;;;;;;;8.80;3.13;;;;;;;15.99;65.36;101920.09;4165740;28;20116;-66
2023/10/04 09:29:45;;;;;;;9.02;3.17;;;;;;;16.11;65.71;101914.16;4162354;28;20034;-66
2023/10/04 09:31:50;;;;;;;12.00;3.50;;;;;;;16.26;64.80;101921.38;4195818;22;20037;-63
2023/10/04 09:33:56;;;;;;;9.35;2.88;;;;;;;16.25;65.37;101916.97;4181139;28;20044;-64
2023/10/04 09:35:59;;;;;;;9.77;3.30;;;;;;;16.36;65.82;101914.50;4181611;28;20068;-65
2023/10/04 09:38:15;;;;;;;9.52;3.50;;;;;;;16.45;64.87;101912.00;4179752;28;20140;-65
2023/10/04 09:40:23;;;;;;;9.45;2.90;;;;;;;16.54;64.58;101909.50;4196779;28;20438;-64